createdAt,value
2022-09-30T00:02:40.713Z,82.45
2022-09-30T00:06:01.306Z,82.39
2022-09-30T00:09:17.067Z,82.58
2022-09-30T00:12:34.951Z,82.29
2022-09-30T00:15:50.369Z,82.50
2022-09-30T00:19:04.116Z,82.63
2022-09-30T00:22:15.246Z,82.55
2022-09-30T00:25:22.052Z,82.69
2022-09-30T00:28:29.233Z,82.75
2022-09-30T00:31:36.857Z,82.71
2022-09-30T00:34:43.489Z,82.86
2022-09-30T00:37:50.253Z,82.75
2022-09-30T00:40:57.998Z,82.80
2022-09-30T00:44:18.329Z,82.88
2022-09-30T00:47:40.252Z,82.85
2022-09-30T00:50:49.831Z,82.82
2022-09-30T00:54:01.554Z,82.89
2022-09-30T00:57:10.639Z,83.03
2022-09-30T01:00:17.225Z,82.93
2022-09-30T01:03:25.693Z,82.96
2022-09-30T01:06:32.595Z,82.90
2022-09-30T01:09:42.226Z,83.02
2022-09-30T01:12:48.783Z,82.98
2022-09-30T01:16:08.198Z,83.10
2022-09-30T01:19:36.248Z,83.08
2022-09-30T01:22:50.758Z,83.00
2022-09-30T01:26:40.047Z,82.99
2022-09-30T01:30:10.869Z,83.07
2022-09-30T01:33:34.605Z,82.87
2022-09-30T01:36:56.110Z,83.01
2022-09-30T01:40:09.488Z,82.97
2022-09-30T01:43:26.669Z,82.93
2022-09-30T01:46:37.872Z,83.06
2022-09-30T01:49:49.135Z,83.06
2022-09-30T01:53:05.612Z,83.09
2022-09-30T01:56:19.241Z,83.08
2022-09-30T01:59:32.053Z,83.07
2022-09-30T02:02:43.748Z,83.07
2022-09-30T02:05:57.960Z,83.11
2022-09-30T02:09:08.523Z,83.23
2022-09-30T02:12:21.085Z,83.18
2022-09-30T02:15:38.468Z,83.08
2022-09-30T02:18:50.496Z,83.33
2022-09-30T02:22:01.857Z,83.25
2022-09-30T02:25:11.848Z,83.44
2022-09-30T02:28:27.299Z,83.29
2022-09-30T02:31:37.453Z,83.34
2022-09-30T02:34:46.979Z,83.33
2022-09-30T02:37:57.869Z,83.37
2022-09-30T02:41:10.749Z,83.28
2022-09-30T02:44:19.061Z,83.34
2022-09-30T02:47:32.761Z,83.38
2022-09-30T02:50:46.761Z,83.37
2022-09-30T02:54:02.364Z,83.51
2022-09-30T02:57:19.652Z,83.37
2022-09-30T03:00:26.474Z,83.49
2022-09-30T03:03:39.378Z,83.46
2022-09-30T03:06:46.367Z,83.67
2022-09-30T03:09:57.103Z,83.89
2022-09-30T03:13:22.995Z,83.66
2022-09-30T03:16:46.778Z,83.93
2022-09-30T03:20:06.863Z,83.72
2022-09-30T03:23:35.448Z,83.77
2022-09-30T03:26:50.351Z,83.97
2022-09-30T03:30:03.449Z,83.82
2022-09-30T03:33:17.512Z,83.93
2022-09-30T03:36:32.372Z,83.87
2022-09-30T03:39:50.424Z,83.79
2022-09-30T03:43:07.298Z,83.93
2022-09-30T03:46:23.030Z,83.89
2022-09-30T03:49:33.967Z,83.92
2022-09-30T03:52:41.005Z,84.13
2022-09-30T03:55:53.221Z,83.87
2022-09-30T03:58:59.870Z,83.86
2022-09-30T04:02:07.234Z,83.99
2022-09-30T04:05:14.149Z,84.26
2022-09-30T04:08:20.887Z,84.12
2022-09-30T04:11:27.752Z,84.09
2022-09-30T04:14:34.605Z,84.08
2022-09-30T04:17:41.077Z,84.01
2022-09-30T04:20:47.503Z,84.31
2022-09-30T04:23:54.165Z,84.32
2022-09-30T04:27:00.748Z,84.22
2022-09-30T04:30:08.356Z,84.45
2022-09-30T04:33:14.844Z,84.37
2022-09-30T04:36:21.533Z,84.43
2022-09-30T04:39:27.770Z,84.48
2022-09-30T04:42:33.098Z,84.57
2022-09-30T04:45:39.423Z,84.52
2022-09-30T04:48:46.644Z,84.55
2022-09-30T04:51:52.856Z,84.62
2022-09-30T04:54:58.907Z,84.72
2022-09-30T04:58:05.191Z,84.75
2022-09-30T05:01:13.660Z,84.66
2022-09-30T05:04:20.106Z,84.56
2022-09-30T05:07:26.931Z,84.72
2022-09-30T05:10:33.740Z,84.62
2022-09-30T05:13:41.671Z,84.84
2022-09-30T05:16:47.899Z,84.80
2022-09-30T05:19:52.545Z,84.84
2022-09-30T05:22:59.454Z,85.06
2022-09-30T05:26:11.120Z,85.16
2022-09-30T05:29:19.594Z,85.06
2022-09-30T05:32:26.030Z,85.00
2022-09-30T05:35:32.327Z,85.15
2022-09-30T05:38:38.999Z,85.15
2022-09-30T05:41:45.255Z,85.26
2022-09-30T05:44:49.860Z,85.23
2022-09-30T05:47:56.858Z,85.16
2022-09-30T05:51:03.623Z,85.38
2022-09-30T05:54:10.904Z,85.15
2022-09-30T05:57:17.403Z,85.47
2022-09-30T06:00:23.778Z,85.30
2022-09-30T06:03:30.042Z,85.20
2022-09-30T06:06:35.944Z,85.31
2022-09-30T06:09:42.791Z,85.60
2022-09-30T06:12:49.093Z,85.60
2022-09-30T06:16:03.388Z,85.46
2022-09-30T06:19:09.862Z,85.52
2022-09-30T06:22:16.324Z,85.64
2022-09-30T06:25:22.543Z,85.61
2022-09-30T06:28:27.487Z,85.46
2022-09-30T06:31:33.922Z,85.73
2022-09-30T06:34:40.197Z,85.67
2022-09-30T06:37:46.072Z,85.70
2022-09-30T06:40:52.510Z,85.83
2022-09-30T06:43:58.586Z,85.84
2022-09-30T06:47:05.531Z,85.77
2022-09-30T06:50:23.470Z,85.63
2022-09-30T06:53:31.235Z,85.98
2022-09-30T06:56:37.454Z,85.75
2022-09-30T06:59:41.863Z,85.68
2022-09-30T07:02:48.921Z,85.91
2022-09-30T07:06:00.269Z,86.09
2022-09-30T07:09:06.693Z,86.11
2022-09-30T07:12:12.919Z,86.03
2022-09-30T07:15:17.649Z,85.91
2022-09-30T07:18:24.167Z,85.75
2022-09-30T07:21:31.620Z,86.13
2022-09-30T07:24:37.742Z,86.17
2022-09-30T07:27:42.313Z,85.96
2022-09-30T07:30:48.426Z,86.04
2022-09-30T07:33:53.353Z,86.11
2022-09-30T07:36:59.438Z,86.15
2022-09-30T07:40:08.638Z,86.06
2022-09-30T07:43:19.248Z,86.28
2022-09-30T07:46:27.213Z,86.19
2022-09-30T07:49:33.826Z,86.04
2022-09-30T07:52:39.917Z,86.01
2022-09-30T07:55:46.043Z,86.03
2022-09-30T07:58:54.550Z,86.10
2022-09-30T08:02:00.725Z,85.92
2022-09-30T08:05:07.761Z,85.85
2022-09-30T08:08:14.339Z,85.87
2022-09-30T08:11:20.744Z,85.86
2022-09-30T08:14:29.078Z,85.99
2022-09-30T08:17:35.202Z,86.30
2022-09-30T08:20:39.654Z,86.06
2022-09-30T08:23:45.780Z,86.04
2022-09-30T08:26:50.340Z,86.18
2022-09-30T08:29:58.378Z,86.41
2022-09-30T08:33:06.460Z,86.47
2022-09-30T08:36:15.508Z,86.49
2022-09-30T08:39:21.649Z,86.39
2022-09-30T08:42:41.600Z,86.38
2022-09-30T08:45:59.652Z,86.65
2022-09-30T08:49:17.267Z,86.52
2022-09-30T08:52:37.347Z,86.59
2022-09-30T08:55:50.828Z,86.46
2022-09-30T08:58:59.034Z,86.46
2022-09-30T09:02:17.485Z,86.28
2022-09-30T09:05:37.559Z,86.57
2022-09-30T09:08:57.680Z,86.40
2022-09-30T09:12:14.365Z,86.36
2022-09-30T09:15:42.199Z,86.41
2022-09-30T09:18:59.694Z,86.18
2022-09-30T09:22:05.886Z,86.39
2022-09-30T09:25:14.442Z,86.26
2022-09-30T09:28:29.383Z,86.33
2022-09-30T09:31:35.615Z,86.50
2022-09-30T09:34:41.368Z,86.84
2022-09-30T09:38:10.531Z,86.64
2022-09-30T09:41:33.529Z,86.56
2022-09-30T09:44:48.430Z,86.58
2022-09-30T09:48:00.211Z,86.49
2022-09-30T09:51:14.582Z,86.40
2022-09-30T09:54:28.262Z,86.63
2022-09-30T09:57:34.426Z,86.63
2022-09-30T10:00:56.260Z,86.52
2022-09-30T10:04:17.865Z,86.52
2022-09-30T10:07:23.983Z,86.63
2022-09-30T10:10:30.131Z,86.43
2022-09-30T10:13:45.455Z,86.51
2022-09-30T10:16:51.763Z,86.29
2022-09-30T10:20:04.442Z,86.27
2022-09-30T10:23:20.641Z,86.38
2022-09-30T10:26:28.808Z,86.38
2022-09-30T10:29:36.716Z,86.23
2022-09-30T10:32:42.814Z,86.35
2022-09-30T10:35:55.991Z,86.26
2022-09-30T10:39:07.405Z,86.47
2022-09-30T10:42:25.988Z,86.22
2022-09-30T10:45:37.407Z,86.27
2022-09-30T10:48:50.210Z,86.43
2022-09-30T10:51:57.194Z,86.25
2022-09-30T10:55:13.284Z,86.29
2022-09-30T10:58:31.018Z,86.20
2022-09-30T11:01:42.051Z,86.44
2022-09-30T11:04:54.314Z,86.46
2022-09-30T11:11:56.554Z,86.35
2022-09-30T11:15:09.484Z,86.38
2022-09-30T11:18:23.037Z,86.42
2022-09-30T11:21:35.437Z,86.56
2022-09-30T11:24:45.367Z,86.66
2022-09-30T11:28:10.153Z,86.57
2022-09-30T11:31:26.333Z,86.57
2022-09-30T11:34:44.777Z,86.76
2022-09-30T11:38:10.427Z,86.59
2022-09-30T11:41:19.637Z,86.57
2022-09-30T11:44:34.045Z,86.43
2022-09-30T11:47:56.512Z,86.51
2022-09-30T11:51:11.680Z,86.40
2022-09-30T11:54:32.907Z,85.83
2022-09-30T11:57:45.157Z,86.08
2022-09-30T12:00:58.423Z,86.14
2022-09-30T12:04:11.023Z,86.12
2022-09-30T12:07:20.177Z,86.34
2022-09-30T12:10:29.257Z,86.30
2022-09-30T12:13:39.368Z,86.27
2022-09-30T12:16:47.308Z,86.31
2022-09-30T12:19:57.658Z,86.16
2022-09-30T12:23:14.587Z,86.42
2022-09-30T12:26:21.115Z,86.40
2022-09-30T12:29:48.970Z,86.41
2022-09-30T12:33:19.939Z,86.34
2022-09-30T12:36:52.598Z,86.35
2022-09-30T12:40:20.184Z,86.50
2022-09-30T12:43:59.491Z,86.35
2022-09-30T12:47:20.994Z,86.46
2022-09-30T12:50:31.270Z,86.23
2022-09-30T12:53:39.114Z,86.24
2022-09-30T12:56:47.327Z,86.14
2022-09-30T12:59:56.550Z,86.30
2022-09-30T13:03:08.339Z,86.04
2022-09-30T13:06:15.486Z,86.09
2022-09-30T13:09:31.278Z,86.13
2022-09-30T13:12:47.859Z,86.10
2022-09-30T13:15:56.343Z,86.16
2022-09-30T13:19:05.530Z,86.17
2022-09-30T13:22:54.367Z,86.20
2022-09-30T13:26:02.108Z,86.06
2022-09-30T13:29:38.551Z,86.09
2022-09-30T13:32:48.009Z,85.76
2022-09-30T13:35:58.647Z,85.86
2022-09-30T13:39:21.053Z,86.03
2022-09-30T13:42:31.575Z,85.95
2022-09-30T13:45:39.966Z,85.94
2022-09-30T13:48:56.229Z,85.92
2022-09-30T13:52:03.888Z,86.05
2022-09-30T13:55:18.976Z,86.29
2022-09-30T13:58:46.238Z,86.16
2022-09-30T14:02:08.666Z,85.89
2022-09-30T14:05:36.227Z,85.66
2022-09-30T14:09:07.819Z,85.81
2022-09-30T14:12:44.318Z,85.85
2022-09-30T14:16:34.914Z,85.60
2022-09-30T14:20:09.402Z,85.74
2022-09-30T14:23:20.345Z,85.74
2022-09-30T14:26:45.053Z,85.74
2022-09-30T14:30:00.317Z,85.73
2022-09-30T14:33:13.412Z,85.73
2022-09-30T14:36:21.962Z,85.45
2022-09-30T14:39:31.842Z,85.48
2022-09-30T14:42:42.585Z,85.43
2022-09-30T14:45:53.139Z,85.49
2022-09-30T14:49:04.690Z,85.40
2022-09-30T14:52:38.103Z,85.44
2022-09-30T14:55:44.282Z,85.46
2022-09-30T14:58:52.480Z,85.25
2022-09-30T15:02:02.978Z,85.22
2022-09-30T15:05:14.192Z,85.24
2022-09-30T15:08:22.865Z,85.16
2022-09-30T15:24:55.218Z,84.94
2022-09-30T15:28:01.317Z,84.85
2022-09-30T15:31:08.312Z,84.88
2022-09-30T15:34:23.251Z,85.11
2022-09-30T15:37:33.917Z,84.95
2022-09-30T15:40:49.238Z,84.97
2022-09-30T15:43:55.886Z,84.89
2022-09-30T15:47:07.254Z,84.85
2022-09-30T15:50:41.442Z,84.96
2022-09-30T15:53:51.558Z,84.91
2022-09-30T15:56:57.767Z,84.93
2022-09-30T16:00:07.970Z,84.90
2022-09-30T16:03:31.228Z,84.73
2022-09-30T16:06:45.165Z,84.79
2022-09-30T16:09:51.166Z,84.89
2022-09-30T16:12:57.095Z,84.83
2022-09-30T16:16:03.364Z,84.82
2022-09-30T16:19:17.179Z,84.96
2022-09-30T16:22:52.161Z,84.93
2022-09-30T16:26:19.503Z,84.86
2022-09-30T16:29:26.276Z,84.98
2022-09-30T16:32:36.718Z,84.73
2022-09-30T16:35:44.754Z,84.95
2022-09-30T16:38:50.667Z,84.89
2022-09-30T16:41:56.495Z,84.83
2022-09-30T16:45:02.356Z,84.86
2022-09-30T16:48:15.568Z,84.85
2022-09-30T16:51:21.431Z,85.02
2022-09-30T16:54:27.507Z,85.02
2022-09-30T16:57:33.365Z,84.83
2022-09-30T17:00:39.755Z,84.90
2022-09-30T17:03:46.571Z,84.78
2022-09-30T17:06:52.441Z,84.91
2022-09-30T17:09:58.270Z,85.02
2022-09-30T17:13:05.547Z,84.89
2022-09-30T17:16:11.617Z,85.00
2022-09-30T17:19:16.113Z,84.90
2022-09-30T17:22:21.975Z,85.06
2022-09-30T17:25:28.191Z,84.89
2022-09-30T17:28:34.901Z,84.88
2022-09-30T17:31:40.796Z,84.93
2022-09-30T17:34:46.702Z,85.09
2022-09-30T17:37:52.569Z,84.94
2022-09-30T17:41:16.292Z,85.11
2022-09-30T17:44:22.166Z,85.09
2022-09-30T17:47:28.338Z,85.11
2022-09-30T17:50:32.589Z,85.06
2022-09-30T17:53:38.497Z,85.03
2022-09-30T17:56:44.742Z,85.12
2022-09-30T17:59:51.538Z,85.14
2022-09-30T18:02:57.590Z,85.12
2022-09-30T18:06:03.952Z,85.12
2022-09-30T18:09:11.349Z,85.32
2022-09-30T18:12:19.275Z,85.05
2022-09-30T18:15:27.176Z,85.13
2022-09-30T18:18:34.775Z,85.29
2022-09-30T18:21:40.806Z,85.18
2022-09-30T18:25:09.262Z,85.29
2022-09-30T18:28:15.419Z,85.41
2022-09-30T18:31:28.489Z,85.34
2022-09-30T18:34:34.768Z,85.53
2022-09-30T18:37:39.606Z,85.37
2022-09-30T18:40:45.929Z,85.47
2022-09-30T18:43:59.668Z,85.50
2022-09-30T18:47:05.585Z,85.56
2022-09-30T18:50:13.688Z,85.52
2022-09-30T18:53:20.729Z,85.65
2022-09-30T18:56:32.179Z,85.62
2022-09-30T18:59:38.407Z,85.57
2022-09-30T19:02:45.182Z,85.48
2022-09-30T19:05:51.035Z,85.54
2022-09-30T19:08:56.971Z,85.63
2022-09-30T19:12:03.221Z,85.48
2022-09-30T19:15:11.889Z,85.59
2022-09-30T19:18:18.124Z,85.61
2022-09-30T19:21:24.395Z,85.67
2022-09-30T19:24:30.306Z,85.62
2022-09-30T19:27:37.823Z,85.57
2022-09-30T19:30:43.683Z,85.73
2022-09-30T19:33:56.454Z,85.75
2022-09-30T19:37:02.858Z,85.64
2022-09-30T19:40:20.502Z,85.78
2022-09-30T19:43:29.317Z,85.79
2022-09-30T19:46:35.772Z,85.72
2022-09-30T19:49:41.735Z,85.75
2022-09-30T19:52:55.826Z,85.87
2022-09-30T19:56:05.918Z,85.92
2022-09-30T19:59:11.919Z,85.97
2022-09-30T20:02:20.081Z,86.05
2022-09-30T20:05:26.471Z,86.11
2022-09-30T20:08:33.755Z,85.91
2022-09-30T20:11:40.893Z,86.08
2022-09-30T20:15:04.374Z,86.03
2022-09-30T20:18:10.226Z,86.07
2022-09-30T20:21:17.834Z,86.06
2022-09-30T20:24:25.129Z,85.97
2022-09-30T20:27:33.074Z,85.98
2022-09-30T20:30:45.709Z,86.05
2022-09-30T20:33:55.010Z,86.25
2022-09-30T20:37:00.848Z,86.18
2022-09-30T20:40:09.291Z,86.19
2022-09-30T20:43:15.205Z,86.19
2022-09-30T20:46:21.432Z,86.22
2022-09-30T20:49:25.654Z,86.12
2022-09-30T20:52:31.495Z,86.17
2022-09-30T20:55:40.045Z,86.20
2022-09-30T20:58:46.770Z,86.26
2022-09-30T21:01:52.659Z,86.25
2022-09-30T21:04:59.765Z,86.36
2022-09-30T21:08:07.438Z,86.25
2022-09-30T21:11:13.650Z,86.32
2022-09-30T21:14:19.519Z,86.33
2022-09-30T21:17:25.419Z,86.42
2022-09-30T21:20:31.338Z,86.30
2022-09-30T21:23:38.087Z,86.37
2022-09-30T21:26:43.991Z,86.44
2022-09-30T21:29:50.991Z,86.42
2022-09-30T21:32:56.938Z,86.38
2022-09-30T21:36:04.755Z,86.32
2022-09-30T21:39:12.654Z,86.25
2022-09-30T21:42:19.183Z,86.48
2022-09-30T21:45:25.609Z,86.44
2022-09-30T21:48:33.340Z,86.40
2022-09-30T21:51:39.174Z,86.38
2022-09-30T21:54:45.049Z,86.41
2022-09-30T21:57:50.887Z,86.45
2022-09-30T22:01:00.708Z,86.44
2022-09-30T22:04:07.419Z,86.48
2022-09-30T22:07:15.567Z,86.42
2022-09-30T22:10:21.494Z,86.28
2022-09-30T22:13:27.349Z,86.51
2022-09-30T22:16:35.983Z,86.55
2022-09-30T22:19:41.903Z,86.50
2022-09-30T22:22:49.049Z,86.50
2022-09-30T22:25:56.913Z,86.50
2022-09-30T22:29:04.425Z,86.47
2022-09-30T22:32:10.384Z,86.49
2022-09-30T22:35:33.983Z,86.55
2022-09-30T22:38:39.827Z,86.61
2022-09-30T22:41:45.705Z,86.53
2022-09-30T22:44:52.122Z,86.48
2022-09-30T22:47:58.686Z,86.43
2022-09-30T22:51:05.194Z,86.43
2022-09-30T22:54:12.373Z,86.57
2022-09-30T22:57:18.242Z,86.72
2022-09-30T23:00:24.115Z,86.49
2022-09-30T23:03:30.076Z,86.71
2022-09-30T23:06:36.603Z,86.50
2022-09-30T23:09:42.448Z,86.47
2022-09-30T23:12:51.495Z,86.64
2022-09-30T23:16:02.545Z,86.63
2022-09-30T23:19:08.638Z,86.66
2022-09-30T23:22:13.572Z,86.54
2022-09-30T23:25:19.420Z,86.60
2022-09-30T23:28:25.359Z,86.65
2022-09-30T23:31:32.182Z,86.63
2022-09-30T23:34:38.346Z,86.75
2022-09-30T23:37:44.393Z,86.57
2022-09-30T23:40:51.199Z,86.69
2022-09-30T23:43:57.092Z,86.59
2022-09-30T23:47:21.645Z,86.74
2022-09-30T23:50:27.631Z,86.74
2022-09-30T23:53:34.535Z,86.71
2022-09-30T23:56:41.529Z,86.87
2022-09-30T23:59:47.400Z,86.81
